createdAt,value
2018-06-18T00:00:01.913Z,3.93
2018-06-18T00:02:31.337Z,4.30
2018-06-18T00:05:00.505Z,4.80
2018-06-18T00:07:29.667Z,3.63
2018-06-18T00:09:59.116Z,3.67
2018-06-18T00:12:28.748Z,4.00
2018-06-18T00:14:58.170Z,4.20
2018-06-18T00:17:27.597Z,7.23
2018-06-18T00:19:57.265Z,5.43
2018-06-18T00:22:26.661Z,4.40
2018-06-18T00:24:55.856Z,4.10
2018-06-18T00:27:25.015Z,5.03
2018-06-18T00:29:54.175Z,6.87
2018-06-18T00:32:23.618Z,4.57
2018-06-18T00:34:53.254Z,4.20
2018-06-18T00:37:24.429Z,4.57
2018-06-18T00:39:53.702Z,7.47
2018-06-18T00:42:23.137Z,4.90
2018-06-18T00:44:52.753Z,4.53
2018-06-18T00:47:22.171Z,4.70
2018-06-18T00:49:51.347Z,6.00
2018-06-18T00:52:20.809Z,5.50
2018-06-18T00:54:50.437Z,3.97
2018-06-18T00:57:19.849Z,7.07
2018-06-18T00:59:49.021Z,4.80
2018-06-18T01:02:18.477Z,5.10
2018-06-18T01:04:47.843Z,4.90
2018-06-18T01:07:17.043Z,4.90
2018-06-18T01:09:46.315Z,4.40
2018-06-18T01:12:15.474Z,6.30
2018-06-18T01:14:44.679Z,4.50
2018-06-18T01:17:13.879Z,6.40
2018-06-18T01:19:43.405Z,5.03
2018-06-18T01:22:12.766Z,4.90
2018-06-18T01:24:49.505Z,4.93
2018-06-18T01:27:18.868Z,5.17
2018-06-18T01:29:48.062Z,5.53
2018-06-18T01:32:17.465Z,5.60
2018-06-18T01:34:47.118Z,8.80
2018-06-18T01:37:16.792Z,6.43
2018-06-18T01:39:46.389Z,7.87
2018-06-18T01:42:16.011Z,4.97
2018-06-18T01:44:45.660Z,5.43
2018-06-18T01:47:15.075Z,6.20
2018-06-18T01:49:44.530Z,6.90
2018-06-18T01:52:13.710Z,5.30
2018-06-18T01:54:42.892Z,6.83
2018-06-18T01:57:12.325Z,5.57
2018-06-18T01:59:41.701Z,5.20
2018-06-18T02:02:10.876Z,4.70
2018-06-18T02:04:40.080Z,6.30
2018-06-18T02:07:09.247Z,5.67
2018-06-18T02:09:38.645Z,8.40
2018-06-18T02:12:08.296Z,5.33
2018-06-18T02:14:37.661Z,5.73
2018-06-18T02:17:06.831Z,8.17
2018-06-18T02:19:36.019Z,6.20
2018-06-18T02:22:05.217Z,5.70
2018-06-18T02:24:34.661Z,10.30
2018-06-18T02:27:09.589Z,8.27
2018-06-18T02:29:44.521Z,5.97
2018-06-18T02:32:19.511Z,5.60
2018-06-18T02:34:54.311Z,7.20
2018-06-18T02:37:29.199Z,6.00
2018-06-18T02:40:04.187Z,5.63
2018-06-18T02:42:33.343Z,6.63
2018-06-18T02:45:02.749Z,6.57
2018-06-18T02:47:32.155Z,7.33
2018-06-18T02:50:01.565Z,7.60
2018-06-18T02:52:31.217Z,6.70
2018-06-18T02:55:00.607Z,7.30
2018-06-18T02:57:30.402Z,6.57
2018-06-18T02:59:59.803Z,7.40
2018-06-18T03:02:28.955Z,6.60
2018-06-18T03:04:58.376Z,6.20
2018-06-18T03:07:27.773Z,7.90
2018-06-18T03:09:57.229Z,7.30
2018-06-18T03:12:26.847Z,7.40
2018-06-18T03:14:56.523Z,8.30
2018-06-18T03:17:26.129Z,10.53
2018-06-18T03:20:01.175Z,6.77
2018-06-18T03:22:35.991Z,7.07
2018-06-18T03:25:10.675Z,9.93
2018-06-18T03:27:45.231Z,10.13
2018-06-18T03:30:14.419Z,7.43
2018-06-18T03:32:43.877Z,8.03
2018-06-18T03:35:13.501Z,5.97
2018-06-18T03:37:42.908Z,6.77
2018-06-18T03:40:12.101Z,7.10
2018-06-18T03:42:41.624Z,8.90
2018-06-18T03:45:14.723Z,6.30
2018-06-18T03:47:44.372Z,10.00
2018-06-18T03:50:13.775Z,8.93
2018-06-18T03:52:43.183Z,6.77
2018-06-18T03:55:14.171Z,7.80
2018-06-18T03:57:43.598Z,6.40
2018-06-18T04:00:13.041Z,7.13
2018-06-18T04:02:57.212Z,10.00
2018-06-18T04:05:33.448Z,7.20
2018-06-18T04:08:04.307Z,6.87
2018-06-18T04:10:39.638Z,7.23
2018-06-18T04:13:09.282Z,9.03
2018-06-18T04:15:38.799Z,6.50
2018-06-18T04:18:08.280Z,6.03
2018-06-18T04:20:46.713Z,7.47
2018-06-18T04:23:16.419Z,7.37
2018-06-18T04:25:45.638Z,9.73
2018-06-18T04:28:15.048Z,5.90
2018-06-18T04:30:45.759Z,7.27
2018-06-18T04:33:16.537Z,10.90
2018-06-18T04:35:45.721Z,7.20
2018-06-18T04:38:15.159Z,5.33
2018-06-18T04:40:44.548Z,8.13
2018-06-18T04:43:19.291Z,8.07
2018-06-18T04:45:52.934Z,8.03
2018-06-18T04:48:27.888Z,7.83
2018-06-18T04:50:58.975Z,6.30
2018-06-18T04:53:28.147Z,10.33
2018-06-18T04:55:57.333Z,8.80
2018-06-18T04:58:26.519Z,6.53
2018-06-18T05:01:05.250Z,5.83
2018-06-18T05:03:34.431Z,8.13
2018-06-18T05:06:03.597Z,7.00
2018-06-18T05:08:48.645Z,6.27
2018-06-18T05:11:18.027Z,11.70
2018-06-18T05:13:47.243Z,6.90
2018-06-18T05:16:16.403Z,5.70
2018-06-18T05:18:45.583Z,7.33
2018-06-18T05:21:15.013Z,5.90
2018-06-18T05:23:44.411Z,6.13
2018-06-18T05:26:13.845Z,10.17
2018-06-18T05:28:43.246Z,6.77
2018-06-18T05:31:12.423Z,9.97
2018-06-18T05:33:41.614Z,11.33
2018-06-18T05:36:11.040Z,5.90
2018-06-18T05:38:40.697Z,6.53
2018-06-18T05:41:10.395Z,7.13
2018-06-18T05:43:40.064Z,4.87
2018-06-18T05:46:09.438Z,6.00
2018-06-18T05:48:38.964Z,7.57
2018-06-18T05:51:08.603Z,8.53
2018-06-18T05:53:38.227Z,5.37
2018-06-18T05:56:07.610Z,5.87
2018-06-18T05:58:37.024Z,8.53
2018-06-18T06:01:06.483Z,8.43
2018-06-18T06:03:35.647Z,6.03
2018-06-18T06:06:05.019Z,7.37
2018-06-18T06:08:34.171Z,6.77
2018-06-18T06:11:03.618Z,8.90
2018-06-18T06:13:33.023Z,7.17
2018-06-18T06:16:02.224Z,5.83
2018-06-18T06:18:31.587Z,6.63
2018-06-18T06:21:02.127Z,6.10
2018-06-18T06:23:31.298Z,8.10
2018-06-18T06:26:00.699Z,6.53
2018-06-18T06:28:30.371Z,7.50
2018-06-18T06:31:00.121Z,12.33
2018-06-18T06:33:29.499Z,10.27
2018-06-18T06:35:59.857Z,11.17
2018-06-18T06:38:29.515Z,6.10
2018-06-18T06:40:59.138Z,6.83
2018-06-18T06:43:28.812Z,8.10
2018-06-18T06:45:58.457Z,7.17
2018-06-18T06:48:27.901Z,7.90
2018-06-18T06:50:57.079Z,6.90
2018-06-18T06:53:26.260Z,6.60
2018-06-18T06:55:55.752Z,6.60
2018-06-18T06:58:25.133Z,8.17
2018-06-18T07:00:54.653Z,8.28
2018-06-18T07:03:24.059Z,7.07
2018-06-18T07:05:53.255Z,9.80
2018-06-18T07:08:22.707Z,8.60
2018-06-18T07:10:52.348Z,6.43
2018-06-18T07:13:21.814Z,7.70
2018-06-18T07:15:50.941Z,6.57
2018-06-18T07:18:20.112Z,8.57
2018-06-18T07:20:49.305Z,7.17
2018-06-18T07:23:18.510Z,10.17
2018-06-18T07:25:47.919Z,9.33
2018-06-18T07:28:17.581Z,8.70
2018-06-18T07:30:47.223Z,7.67
2018-06-18T07:33:16.573Z,6.17
2018-06-18T07:35:46.029Z,7.50
2018-06-18T07:38:15.671Z,7.80
2018-06-18T07:40:45.627Z,10.73
2018-06-18T07:43:14.809Z,9.60
2018-06-18T07:45:44.008Z,9.50
2018-06-18T07:48:13.590Z,8.77
2018-06-18T07:50:42.753Z,8.40
2018-06-18T07:53:12.196Z,8.17
2018-06-18T07:55:41.593Z,10.90
2018-06-18T07:58:10.761Z,14.10
2018-06-18T08:00:39.959Z,6.90
2018-06-18T08:03:09.160Z,8.90
2018-06-18T08:05:38.327Z,9.20
2018-06-18T08:08:07.509Z,10.43
2018-06-18T08:10:36.823Z,8.03
2018-06-18T08:13:05.987Z,6.57
2018-06-18T08:15:35.173Z,8.00
2018-06-18T08:18:04.691Z,8.27
2018-06-18T08:20:34.349Z,8.80
2018-06-18T08:23:03.975Z,8.43
2018-06-18T08:25:33.378Z,8.30
2018-06-18T08:28:02.575Z,8.00
2018-06-18T08:30:31.991Z,11.60
2018-06-18T08:33:01.391Z,7.40
2018-06-18T08:35:30.799Z,6.23
2018-06-18T08:38:00.228Z,6.40
2018-06-18T08:40:29.391Z,7.50
2018-06-18T08:42:59.881Z,6.00
2018-06-18T08:45:29.059Z,6.77
2018-06-18T08:47:58.495Z,6.80
2018-06-18T08:50:33.645Z,7.20
2018-06-18T08:53:08.778Z,6.97
2018-06-18T08:55:43.805Z,8.00
2018-06-18T08:58:18.458Z,8.53
2018-06-18T09:00:54.001Z,7.50
2018-06-18T09:03:26.531Z,7.97
2018-06-18T09:06:01.344Z,7.90
2018-06-18T09:08:40.937Z,7.70
2018-06-18T09:11:10.341Z,7.37
2018-06-18T09:13:39.903Z,7.10
2018-06-18T09:16:09.298Z,9.17
2018-06-18T09:18:38.743Z,7.63
2018-06-18T09:21:08.511Z,9.77
2018-06-18T09:23:38.179Z,10.53
2018-06-18T09:26:07.589Z,9.90
2018-06-18T09:28:37.017Z,8.80
2018-06-18T09:31:06.408Z,9.47
2018-06-18T09:33:35.710Z,11.70
2018-06-18T09:36:05.185Z,9.70
2018-06-18T09:38:34.563Z,9.17
2018-06-18T09:41:03.759Z,10.30
2018-06-18T09:43:32.957Z,10.23
2018-06-18T09:46:02.436Z,11.73
2018-06-18T09:48:37.406Z,9.10
2018-06-18T09:51:12.372Z,8.70
2018-06-18T09:53:47.151Z,9.30
2018-06-18T09:56:21.795Z,13.90
2018-06-18T09:58:56.939Z,8.10
2018-06-18T10:01:30.571Z,10.27
2018-06-18T10:04:00.894Z,9.00
2018-06-18T10:06:32.437Z,10.27
2018-06-18T10:09:06.270Z,9.30
2018-06-18T10:11:36.437Z,8.40
2018-06-18T10:14:08.211Z,7.40
2018-06-18T10:16:37.592Z,10.70
2018-06-18T10:19:06.797Z,7.70
2018-06-18T10:21:36.237Z,7.97
2018-06-18T10:24:05.654Z,8.60
2018-06-18T10:26:34.862Z,8.03
2018-06-18T10:29:04.038Z,9.50
2018-06-18T10:31:33.244Z,8.60
2018-06-18T10:34:08.086Z,8.73
2018-06-18T10:36:42.858Z,9.23
2018-06-18T10:39:17.691Z,8.20
2018-06-18T10:41:52.576Z,7.87
2018-06-18T10:44:21.760Z,7.80
2018-06-18T10:46:51.176Z,9.40
2018-06-18T10:49:20.787Z,8.10
2018-06-18T10:51:50.551Z,8.27
2018-06-18T10:54:19.954Z,7.97
2018-06-18T10:56:49.378Z,7.20
2018-06-18T10:59:19.144Z,9.13
2018-06-18T11:01:48.728Z,9.20
2018-06-18T11:04:23.393Z,7.00
2018-06-18T11:06:52.578Z,7.23
2018-06-18T11:09:22.840Z,7.50
2018-06-18T11:11:52.430Z,8.10
2018-06-18T11:14:21.857Z,8.37
2018-06-18T11:16:56.886Z,10.73
2018-06-18T11:19:31.411Z,10.27
2018-06-18T11:22:04.437Z,7.13
2018-06-18T11:24:39.586Z,8.10
2018-06-18T11:27:09.898Z,7.50
2018-06-18T11:29:39.030Z,6.07
2018-06-18T11:32:08.504Z,7.07
2018-06-18T11:34:38.200Z,6.97
2018-06-18T11:37:07.927Z,6.60
2018-06-18T11:39:37.431Z,7.40
2018-06-18T11:42:06.571Z,6.30
2018-06-18T11:44:35.948Z,6.53
2018-06-18T11:47:05.368Z,5.90
2018-06-18T11:49:34.790Z,5.87
2018-06-18T11:52:04.198Z,7.10
2018-06-18T11:54:33.552Z,5.90
2018-06-18T11:57:02.729Z,5.93
2018-06-18T11:59:37.668Z,5.53
2018-06-18T12:02:12.544Z,6.40
2018-06-18T12:04:47.353Z,5.93
2018-06-18T12:07:22.284Z,7.43
2018-06-18T12:09:52.374Z,4.90
2018-06-18T12:12:21.626Z,4.93
2018-06-18T12:14:50.950Z,5.80
2018-06-18T12:17:20.434Z,4.40
2018-06-18T12:19:49.840Z,3.67
2018-06-18T12:22:19.102Z,3.63
2018-06-18T12:24:48.506Z,4.80
2018-06-18T12:27:20.445Z,4.90
2018-06-18T12:29:49.636Z,3.93
2018-06-18T12:32:18.894Z,6.10
2018-06-18T12:34:49.221Z,5.07
2018-06-18T12:37:18.656Z,4.27
2018-06-18T12:39:48.787Z,5.37
2018-06-18T12:42:18.354Z,4.13
2018-06-18T12:44:53.346Z,6.47
2018-06-18T12:47:28.222Z,4.40
2018-06-18T12:50:03.416Z,7.73
2018-06-18T12:52:38.325Z,4.53
2018-06-18T12:55:13.060Z,3.50
2018-06-18T12:57:42.512Z,4.00
2018-06-18T13:00:11.706Z,3.83
2018-06-18T13:02:42.447Z,3.87
2018-06-18T13:05:11.790Z,4.20
2018-06-18T13:07:41.197Z,4.13
2018-06-18T13:10:10.663Z,4.73
2018-06-18T13:12:40.073Z,4.00
2018-06-18T13:15:10.173Z,4.73
2018-06-18T13:17:39.851Z,4.37
2018-06-18T13:20:09.319Z,6.93
2018-06-18T13:22:38.734Z,5.60
2018-06-18T13:25:08.178Z,4.83
2018-06-18T13:27:42.844Z,4.33
2018-06-18T13:30:12.287Z,5.20
2018-06-18T13:32:41.682Z,6.87
2018-06-18T13:35:11.115Z,4.60
2018-06-18T13:37:46.083Z,7.60
2018-06-18T13:40:20.805Z,4.70
2018-06-18T13:42:55.661Z,4.33
2018-06-18T13:45:30.684Z,3.50
2018-06-18T13:48:05.623Z,4.40
2018-06-18T13:50:35.259Z,3.97
2018-06-18T13:53:04.699Z,4.80
2018-06-18T13:55:34.142Z,4.33
2018-06-18T13:58:03.570Z,4.40
2018-06-18T14:00:33.019Z,4.70
2018-06-18T14:03:02.429Z,4.07
2018-06-18T14:05:31.948Z,4.33
2018-06-18T14:08:01.327Z,4.83
2018-06-18T14:10:34.305Z,4.70
2018-06-18T14:13:03.467Z,5.70
2018-06-18T14:15:32.877Z,4.83
2018-06-18T14:18:02.080Z,5.27
2018-06-18T14:20:31.523Z,6.30
2018-06-18T14:23:00.946Z,5.00
2018-06-18T14:25:30.388Z,5.87
2018-06-18T14:27:59.989Z,6.80
2018-06-18T14:30:34.994Z,4.23
2018-06-18T14:33:09.843Z,4.73
2018-06-18T14:35:44.523Z,5.37
2018-06-18T14:38:19.294Z,3.70
2018-06-18T14:40:48.464Z,4.30
2018-06-18T14:43:17.659Z,4.00
2018-06-18T14:45:47.205Z,4.80
2018-06-18T14:48:17.031Z,4.00
2018-06-18T14:50:46.623Z,5.33
2018-06-18T14:53:16.103Z,4.07
2018-06-18T14:55:47.231Z,3.17
2018-06-18T14:58:16.644Z,3.50
2018-06-18T15:00:46.263Z,3.43
2018-06-18T15:03:15.646Z,2.93
2018-06-18T15:05:45.165Z,3.60
2018-06-18T15:08:14.570Z,3.47
2018-06-18T15:10:49.271Z,3.20
2018-06-18T15:13:18.533Z,3.50
2018-06-18T15:15:53.669Z,3.70
2018-06-18T15:18:23.022Z,3.87
2018-06-18T15:20:55.202Z,4.23
2018-06-18T15:23:24.782Z,3.67
2018-06-18T15:25:53.965Z,5.37
2018-06-18T15:28:23.148Z,4.27
2018-06-18T15:30:52.592Z,4.03
2018-06-18T15:33:22.027Z,5.40
2018-06-18T15:35:51.174Z,4.90
2018-06-18T15:38:20.664Z,4.67
2018-06-18T15:40:50.078Z,5.20
2018-06-18T15:43:19.254Z,5.47
2018-06-18T15:45:49.090Z,5.30
2018-06-18T15:48:18.744Z,5.27
2018-06-18T15:50:48.140Z,5.70
2018-06-18T15:53:17.614Z,5.00
2018-06-18T15:55:47.085Z,4.87
2018-06-18T15:58:16.487Z,5.77
2018-06-18T16:00:45.900Z,10.33
2018-06-18T16:03:15.360Z,5.43
2018-06-18T16:05:45.119Z,6.00
2018-06-18T16:08:14.494Z,6.80
2018-06-18T16:10:43.726Z,6.30
2018-06-18T16:13:13.155Z,7.07
2018-06-18T16:15:49.450Z,5.37
2018-06-18T16:18:18.879Z,7.00
2018-06-18T16:20:48.778Z,6.20
2018-06-18T16:23:18.192Z,6.00
2018-06-18T16:25:47.662Z,5.53
2018-06-18T16:28:17.348Z,5.13
2018-06-18T16:30:47.163Z,4.63
2018-06-18T16:33:16.550Z,3.10
2018-06-18T16:35:45.750Z,3.77
2018-06-18T16:38:15.204Z,2.30
2018-06-18T16:40:44.618Z,3.77
2018-06-18T16:43:14.028Z,4.30
2018-06-18T16:45:43.483Z,4.13
2018-06-18T16:48:12.701Z,3.10
2018-06-18T16:50:42.156Z,3.07
2018-06-18T16:53:11.344Z,2.70
2018-06-18T16:55:40.542Z,3.60
2018-06-18T16:58:09.886Z,4.47
2018-06-18T17:00:39.390Z,4.00
2018-06-18T17:03:09.054Z,5.03
2018-06-18T17:05:38.475Z,3.60
2018-06-18T17:08:07.672Z,4.50
2018-06-18T17:10:36.988Z,3.53
2018-06-18T17:13:06.197Z,3.23
2018-06-18T17:15:35.630Z,3.87
2018-06-18T17:18:05.304Z,2.90
2018-06-18T17:20:34.466Z,3.20
2018-06-18T17:23:03.673Z,2.93
2018-06-18T17:25:33.094Z,2.70
2018-06-18T17:28:02.531Z,3.27
2018-06-18T17:30:31.715Z,3.47
2018-06-18T17:33:00.909Z,3.87
2018-06-18T17:35:30.083Z,3.00
2018-06-18T17:37:59.305Z,3.13
2018-06-18T17:40:28.496Z,2.80
2018-06-18T17:42:57.928Z,6.20
2018-06-18T17:45:27.360Z,3.40
2018-06-18T17:47:56.631Z,3.13
2018-06-18T17:50:25.775Z,4.20
2018-06-18T17:52:55.274Z,3.20
2018-06-18T17:55:24.912Z,5.07
2018-06-18T17:57:54.324Z,3.10
2018-06-18T18:00:23.503Z,4.90
2018-06-18T18:02:52.940Z,4.20
2018-06-18T18:05:22.632Z,3.37
2018-06-18T18:07:52.326Z,2.60
2018-06-18T18:10:21.753Z,5.93
2018-06-18T18:12:51.046Z,3.70
2018-06-18T18:15:20.481Z,2.80
2018-06-18T18:17:49.928Z,3.93
2018-06-18T18:20:19.368Z,3.87
2018-06-18T18:22:48.760Z,2.67
2018-06-18T18:25:18.216Z,3.30
2018-06-18T18:27:47.637Z,4.90
2018-06-18T18:30:17.100Z,3.87
2018-06-18T18:32:46.539Z,3.97
2018-06-18T18:35:15.992Z,3.10
2018-06-18T18:37:45.900Z,2.93
2018-06-18T18:40:15.306Z,3.93
2018-06-18T18:42:44.482Z,4.57
2018-06-18T18:45:13.702Z,3.87
2018-06-18T18:47:42.890Z,3.40
2018-06-18T18:50:12.101Z,3.17
2018-06-18T18:52:41.310Z,4.27
2018-06-18T18:55:25.879Z,4.30
2018-06-18T18:59:35.265Z,3.77
2018-06-18T19:02:04.670Z,4.70
2018-06-18T19:05:06.152Z,5.17
2018-06-18T19:07:39.292Z,6.33
2018-06-18T19:10:15.093Z,5.90
2018-06-18T19:12:44.298Z,4.17
2018-06-18T19:15:13.588Z,5.13
2018-06-18T19:17:42.770Z,4.63
2018-06-18T19:20:13.582Z,4.87
2018-06-18T19:22:42.765Z,4.93
2018-06-18T19:25:12.252Z,4.90
2018-06-18T19:27:41.669Z,6.03
2018-06-18T19:30:11.360Z,4.97
2018-06-18T19:32:40.572Z,4.33
2018-06-18T19:35:10.029Z,6.83
2018-06-18T19:37:39.728Z,6.07
2018-06-18T19:40:09.422Z,8.50
2018-06-18T19:42:39.102Z,7.53
2018-06-18T19:45:09.797Z,5.03
2018-06-18T19:47:51.073Z,6.93
2018-06-18T19:50:20.472Z,9.07
2018-06-18T19:52:49.664Z,7.50
2018-06-18T19:55:19.994Z,6.40
2018-06-18T19:57:49.181Z,5.30
2018-06-18T20:00:18.754Z,6.40
2018-06-18T20:02:47.932Z,9.23
2018-06-18T20:05:17.397Z,6.60
2018-06-18T20:07:50.219Z,5.80
2018-06-18T20:10:19.464Z,7.33
2018-06-18T20:12:48.651Z,6.57
2018-06-18T20:15:18.096Z,5.10
2018-06-18T20:17:47.562Z,5.17
2018-06-18T20:20:17.038Z,7.77
2018-06-18T20:22:46.578Z,8.07
2018-06-18T20:25:16.833Z,7.07
2018-06-18T20:27:46.449Z,7.37
2018-06-18T20:30:15.662Z,6.70
2018-06-18T20:32:44.846Z,9.47
2018-06-18T20:35:19.652Z,4.80
2018-06-18T20:37:48.866Z,7.50
2018-06-18T20:40:18.093Z,6.57
2018-06-18T20:42:47.315Z,11.40
2018-06-18T20:45:16.913Z,6.90
2018-06-18T20:47:46.324Z,7.60
2018-06-18T20:50:15.610Z,7.53
2018-06-18T20:52:45.245Z,7.67
2018-06-18T20:55:14.424Z,10.00
2018-06-18T20:57:43.601Z,6.23
2018-06-18T21:00:13.032Z,6.33
2018-06-18T21:02:42.796Z,8.80
2018-06-18T21:05:12.467Z,7.87
2018-06-18T21:07:41.605Z,8.13
2018-06-18T21:10:10.819Z,7.97
2018-06-18T21:12:40.944Z,7.63
2018-06-18T21:15:10.790Z,6.00
2018-06-18T21:17:40.301Z,8.27
2018-06-18T21:20:09.718Z,7.27
2018-06-18T21:22:38.882Z,7.00
2018-06-18T21:25:08.093Z,6.87
2018-06-18T21:27:37.528Z,6.43
2018-06-18T21:30:08.082Z,9.83
2018-06-18T21:32:37.536Z,7.17
2018-06-18T21:35:06.935Z,6.40
2018-06-18T21:37:36.362Z,8.13
2018-06-18T21:40:05.792Z,10.87
2018-06-18T21:42:34.976Z,6.40
2018-06-18T21:45:08.844Z,6.60
2018-06-18T21:47:38.288Z,7.50
2018-06-18T21:50:07.762Z,9.13
2018-06-18T21:52:37.419Z,6.40
2018-06-18T21:55:07.036Z,7.80
2018-06-18T21:57:36.691Z,9.57
2018-06-18T22:00:10.191Z,8.00
2018-06-18T22:02:39.430Z,8.83
2018-06-18T22:05:08.861Z,9.50
2018-06-18T22:07:38.245Z,7.33
2018-06-18T22:10:07.697Z,7.50
2018-06-18T22:12:37.109Z,7.57
2018-06-18T22:15:06.702Z,9.20
2018-06-18T22:17:35.865Z,9.30
2018-06-18T22:20:05.064Z,6.80
2018-06-18T22:22:34.227Z,8.50
2018-06-18T22:25:03.453Z,10.83
2018-06-18T22:27:32.677Z,7.63
2018-06-18T22:30:02.038Z,9.97
2018-06-18T22:32:31.269Z,11.50
2018-06-18T22:35:00.689Z,10.67
2018-06-18T22:37:30.397Z,8.77
2018-06-18T22:39:59.805Z,9.67
2018-06-18T22:42:29.060Z,9.87
2018-06-18T22:44:58.439Z,10.07
2018-06-18T22:47:27.851Z,8.77
2018-06-18T22:49:57.286Z,8.80
2018-06-18T22:52:26.705Z,12.00
2018-06-18T22:54:56.131Z,7.50
2018-06-18T22:57:25.753Z,8.00
2018-06-18T22:59:55.169Z,12.30
2018-06-18T23:02:27.015Z,10.47
2018-06-18T23:04:56.481Z,11.53
2018-06-18T23:07:25.674Z,8.40
2018-06-18T23:09:54.847Z,9.80
2018-06-18T23:12:27.297Z,7.03
2018-06-18T23:14:56.739Z,12.40
2018-06-18T23:17:26.139Z,9.70
2018-06-18T23:19:55.335Z,8.07
2018-06-18T23:22:24.761Z,7.90
2018-06-18T23:24:54.184Z,9.93
2018-06-18T23:27:23.635Z,8.43
2018-06-18T23:29:53.043Z,7.50
2018-06-18T23:32:22.207Z,8.40
2018-06-18T23:34:51.370Z,8.60
2018-06-18T23:37:20.636Z,8.80
2018-06-18T23:39:50.075Z,10.37
2018-06-18T23:42:19.496Z,8.23
2018-06-18T23:44:48.928Z,11.50
2018-06-18T23:47:18.322Z,8.90
2018-06-18T23:49:47.507Z,9.80
2018-06-18T23:52:16.959Z,10.20
2018-06-18T23:54:46.640Z,11.17
2018-06-18T23:57:16.269Z,10.70
2018-06-18T23:59:45.786Z,9.40
